Time;durP1;ratioP1;P1;durP2;ratioP2;P2;SDS_P1;SDS_P2;PMS_P1;PMS_P2;Temp;Humidity;BMP_temperature;BMP_pressure;BME280_temperature;BME280_humidity;BME280_pressure;Samples;Min_cycle;Max_cycle;Signal;HPM_P1;HPM_P2
2023/07/18 00:00:32;;;;;;;4.65;3.25;;;25.00;86.50;;;;;;4993651;28;20033;-72
2023/07/18 00:02:59;;;;;;;4.72;3.25;;;25.00;86.50;;;;;;4993823;28;20031;-72
2023/07/18 00:05:25;;;;;;;3.47;2.88;;;24.90;86.60;;;;;;4994856;28;20050;-73
2023/07/18 00:07:50;;;;;;;4.05;2.75;;;24.90;86.60;;;;;;4991419;28;20038;-72
2023/07/18 00:10:19;;;;;;;2.97;2.67;;;25.00;86.60;;;;;;4976890;28;20466;-72
2023/07/18 00:12:44;;;;;;;4.55;2.78;;;25.00;86.60;;;;;;4993411;28;20032;-73
2023/07/18 00:15:11;;;;;;;3.95;3.22;;;25.00;86.60;;;;;;4993720;28;20026;-72
2023/07/18 00:17:37;;;;;;;3.58;2.90;;;24.90;87.10;;;;;;4990643;28;20553;-73
2023/07/18 00:20:04;;;;;;;5.35;2.80;;;24.90;86.60;;;;;;4991701;28;20022;-73
2023/07/18 00:22:30;;;;;;;4.13;3.50;;;24.90;86.70;;;;;;4993285;28;20022;-72
2023/07/18 00:24:56;;;;;;;4.70;3.05;;;24.90;86.50;;;;;;4992997;28;20037;-74
2023/07/18 00:27:21;;;;;;;5.15;2.80;;;24.90;86.40;;;;;;4981236;28;20459;-72
2023/07/18 00:29:47;;;;;;;5.18;3.30;;;24.90;86.30;;;;;;4973641;28;20041;-73
2023/07/18 00:32:13;;;;;;;7.78;2.92;;;25.00;86.30;;;;;;4993056;28;20030;-72
2023/07/18 00:34:40;;;;;;;3.58;2.50;;;24.90;86.10;;;;;;4993540;28;20022;-72
2023/07/18 00:37:06;;;;;;;4.65;2.92;;;24.90;86.00;;;;;;4992757;28;20054;-72
2023/07/18 00:39:32;;;;;;;4.28;2.80;;;24.90;86.00;;;;;;4993492;28;20066;-73
2023/07/18 00:42:00;;;;;;;4.30;2.65;;;25.00;86.00;;;;;;4992793;28;20022;-72
2023/07/18 00:44:26;;;;;;;4.38;3.00;;;25.00;85.80;;;;;;4993093;28;20585;-72
2023/07/18 00:46:52;;;;;;;4.03;2.72;;;25.00;85.80;;;;;;4993176;28;20026;-73
2023/07/18 00:49:17;;;;;;;4.07;2.95;;;24.90;85.50;;;;;;4993142;28;20513;-73
2023/07/18 00:51:43;;;;;;;3.47;2.70;;;25.00;85.50;;;;;;4976216;28;20031;-73
2023/07/18 00:54:09;;;;;;;3.17;2.75;;;25.00;85.30;;;;;;4992184;28;20360;-73
2023/07/18 00:56:34;;;;;;;2.78;2.47;;;25.00;85.20;;;;;;5012116;28;20037;-73
2023/07/18 00:59:01;;;;;;;4.82;2.70;;;25.00;85.20;;;;;;5012261;28;20038;-73
2023/07/18 01:01:27;;;;;;;3.88;2.60;;;25.00;84.90;;;;;;5013201;28;20030;-73
2023/07/18 01:03:53;;;;;;;4.90;3.10;;;24.90;84.80;;;;;;5012482;28;20369;-73
2023/07/18 01:06:18;;;;;;;4.13;3.00;;;25.00;84.80;;;;;;4986379;28;20503;-73
2023/07/18 01:08:44;;;;;;;3.63;2.92;;;25.00;84.90;;;;;;4993579;28;20109;-73
2023/07/18 01:11:09;;;;;;;4.22;2.70;;;25.00;85.00;;;;;;4994224;28;20026;-73
2023/07/18 01:13:36;;;;;;;3.90;3.08;;;25.00;84.90;;;;;;4991510;28;20022;-73
2023/07/18 01:16:02;;;;;;;5.25;2.70;;;25.00;84.90;;;;;;4996531;28;20450;-73
2023/07/18 01:18:28;;;;;;;3.33;2.75;;;25.10;84.80;;;;;;4997139;28;20038;-73
2023/07/18 01:20:55;;;;;;;3.30;2.88;;;25.10;84.70;;;;;;4996675;28;20425;-73
2023/07/18 01:23:21;;;;;;;3.50;2.83;;;25.10;84.60;;;;;;4996769;28;20130;-72
2023/07/18 01:25:47;;;;;;;3.63;2.67;;;25.20;84.70;;;;;;4997006;28;20390;-72
2023/07/18 01:28:12;;;;;;;6.57;2.97;;;25.10;84.80;;;;;;4995230;28;20045;-72
2023/07/18 01:30:39;;;;;;;4.65;3.05;;;25.20;85.20;;;;;;4997250;28;20427;-73
2023/07/18 01:33:04;;;;;;;4.13;3.03;;;25.20;85.50;;;;;;4996256;28;20026;-73
2023/07/18 01:35:30;;;;;;;3.50;3.20;;;25.20;85.70;;;;;;4996849;28;20109;-73
2023/07/18 01:37:57;;;;;;;6.43;3.35;;;25.10;85.90;;;;;;4996128;28;20393;-73
2023/07/18 01:40:24;;;;;;;4.65;3.22;;;25.10;85.80;;;;;;4996675;28;20035;-73
2023/07/18 01:42:54;;;;;;;4.78;3.42;;;25.10;85.50;;;;;;4996618;28;20023;-73
2023/07/18 01:45:21;;;;;;;4.97;3.20;;;25.10;85.20;;;;;;4996613;28;20477;-73
2023/07/18 01:47:48;;;;;;;4.72;3.22;;;25.00;85.10;;;;;;4996628;28;20391;-73
2023/07/18 01:50:14;;;;;;;4.10;3.20;;;25.00;84.10;;;;;;4996524;28;20030;-73
2023/07/18 01:52:40;;;;;;;4.45;3.33;;;25.00;83.20;;;;;;4996601;28;20029;-73
2023/07/18 01:55:06;;;;;;;3.90;3.50;;;25.00;81.90;;;;;;4996259;28;20036;-73
2023/07/18 01:57:40;;;;;;;5.55;3.60;;;24.90;82.20;;;;;;4996223;28;20046;-73
2023/07/18 02:00:11;;;;;;;4.28;3.22;;;24.90;83.00;;;;;;4996076;28;20058;-73
2023/07/18 02:02:37;;;;;;;7.45;3.72;;;24.90;83.50;;;;;;4996429;28;20067;-73
2023/07/18 02:05:04;;;;;;;5.38;4.00;;;24.90;86.00;;;;;;4994503;28;20521;-73
2023/07/18 02:07:30;;;;;;;7.32;3.83;;;24.90;89.20;;;;;;4992180;28;20121;-72
2023/07/18 02:09:56;;;;;;;6.68;3.88;;;24.80;90.00;;;;;;5015753;28;20510;-73
2023/07/18 02:12:22;;;;;;;5.70;4.00;;;24.80;90.10;;;;;;5015736;28;20098;-73
2023/07/18 02:14:47;;;;;;;6.38;3.90;;;24.70;90.60;;;;;;5008214;28;20028;-73
2023/07/18 02:17:13;;;;;;;5.38;3.75;;;24.60;91.40;;;;;;4995619;28;20427;-73
2023/07/18 02:19:38;;;;;;;7.75;4.32;;;24.50;92.50;;;;;;4995992;28;20530;-72
2023/07/18 02:22:05;;;;;;;6.78;4.10;;;24.40;93.40;;;;;;4995076;28;20379;-72
2023/07/18 02:24:31;;;;;;;6.05;4.22;;;24.30;93.70;;;;;;4995846;28;20058;-73
2023/07/18 02:26:58;;;;;;;5.65;3.97;;;24.30;94.50;;;;;;4995279;28;20035;-73
2023/07/18 02:29:23;;;;;;;5.30;3.72;;;24.20;94.90;;;;;;4995845;28;20035;-73
2023/07/18 02:31:49;;;;;;;4.88;3.90;;;24.20;95.50;;;;;;4995448;28;20026;-72
2023/07/18 02:34:15;;;;;;;8.55;4.30;;;24.20;95.60;;;;;;4995179;28;20042;-73
2023/07/18 02:36:40;;;;;;;6.05;4.05;;;24.10;95.80;;;;;;4995640;28;20069;-73
2023/07/18 02:39:08;;;;;;;8.73;4.25;;;24.10;95.90;;;;;;4994930;28;20478;-73
2023/07/18 02:41:34;;;;;;;5.65;3.70;;;24.00;95.70;;;;;;4992744;28;20037;-72
2023/07/18 02:44:00;;;;;;;4.72;3.85;;;24.00;94.90;;;;;;4982977;28;20471;-73
2023/07/18 02:46:26;;;;;;;5.38;3.90;;;24.00;93.80;;;;;;4980685;28;20263;-73
2023/07/18 02:48:51;;;;;;;7.40;4.20;;;23.90;90.90;;;;;;4996591;28;20057;-72
2023/07/18 02:51:17;;;;;;;4.85;3.85;;;23.90;88.80;;;;;;4994952;28;20030;-73
2023/07/18 02:53:43;;;;;;;4.70;3.72;;;23.90;87.90;;;;;;4995140;28;20026;-73
2023/07/18 02:56:09;;;;;;;5.63;3.80;;;23.80;81.80;;;;;;4994929;28;20153;-73
2023/07/18 02:58:35;;;;;;;5.25;3.80;;;23.80;81.80;;;;;;4995051;28;20172;-72
2023/07/18 03:01:01;;;;;;;4.75;3.47;;;23.80;81.90;;;;;;4994570;28;20026;-73
2023/07/18 03:03:26;;;;;;;7.68;4.10;;;23.80;84.60;;;;;;4995248;28;20570;-72
2023/07/18 03:05:53;;;;;;;7.20;3.88;;;23.80;87.20;;;;;;4994716;28;20125;-73
2023/07/18 03:08:19;;;;;;;5.07;4.10;;;23.80;87.20;;;;;;4994731;28;20044;-73
2023/07/18 03:10:45;;;;;;;6.90;4.28;;;23.80;88.90;;;;;;4995011;28;20030;-73
2023/07/18 03:13:11;;;;;;;7.28;3.67;;;23.80;89.50;;;;;;4994500;28;20023;-73
2023/07/18 03:15:39;;;;;;;5.65;3.72;;;23.80;90.00;;;;;;4994769;28;20529;-73
2023/07/18 03:18:08;;;;;;;5.75;4.40;;;23.80;90.40;;;;;;4994301;28;20042;-73
2023/07/18 03:20:33;;;;;;;5.03;4.40;;;23.70;90.60;;;;;;4994748;28;20058;-73
2023/07/18 03:22:59;;;;;;;6.57;4.03;;;23.70;90.80;;;;;;4994383;28;20037;-74
2023/07/18 03:25:25;;;;;;;13.98;4.85;;;23.70;91.00;;;;;;4994978;28;20086;-72
2023/07/18 03:27:51;;;;;;;6.82;4.82;;;23.70;91.80;;;;;;4994719;28;20486;-72
2023/07/18 03:30:17;;;;;;;7.10;4.32;;;23.70;92.50;;;;;;4994449;28;20065;-73
2023/07/18 03:32:43;;;;;;;4.97;4.43;;;23.60;93.20;;;;;;4994434;28;20058;-73
2023/07/18 03:35:10;;;;;;;6.72;4.10;;;23.70;93.80;;;;;;4975908;28;20383;-73
2023/07/18 03:37:37;;;;;;;7.18;4.55;;;23.60;94.00;;;;;;4992998;28;20092;-73
2023/07/18 03:40:06;;;;;;;6.40;4.47;;;23.60;94.60;;;;;;4993975;28;20030;-73
2023/07/18 03:42:35;;;;;;;6.55;4.32;;;23.50;95.10;;;;;;4994095;28;20037;-73
2023/07/18 03:45:01;;;;;;;5.88;4.60;;;23.50;95.30;;;;;;4994055;28;20113;-77
2023/07/18 03:47:26;;;;;;;9.48;4.47;;;23.50;95.50;;;;;;4993223;28;20484;-80
2023/07/18 03:49:52;;;;;;;9.05;4.57;;;23.40;95.60;;;;;;4968043;28;20033;-73
2023/07/18 03:52:18;;;;;;;6.50;4.35;;;23.40;95.90;;;;;;4991498;28;20517;-73
2023/07/18 03:54:45;;;;;;;7.18;5.15;;;23.30;95.70;;;;;;4993826;28;20072;-73
2023/07/18 03:57:11;;;;;;;6.53;4.32;;;23.20;95.60;;;;;;4976289;28;20109;-75
2023/07/18 03:59:37;;;;;;;7.53;4.90;;;23.20;95.20;;;;;;5013050;28;20069;-73
2023/07/18 04:02:02;;;;;;;7.10;4.22;;;23.20;94.80;;;;;;5013145;28;20030;-73
2023/07/18 04:04:30;;;;;;;7.55;4.30;;;23.20;93.80;;;;;;5013522;28;20022;-72
2023/07/18 04:06:55;;;;;;;8.93;3.80;;;23.20;93.20;;;;;;5012913;28;20077;-72
2023/07/18 04:09:21;;;;;;;6.50;3.78;;;23.30;92.60;;;;;;5013007;28;20068;-72
2023/07/18 04:11:47;;;;;;;7.38;4.25;;;23.30;92.10;;;;;;5013325;28;20037;-72
2023/07/18 04:14:13;;;;;;;7.15;4.05;;;23.30;91.60;;;;;;5009853;28;20442;-73
2023/07/18 04:16:38;;;;;;;8.38;5.10;;;23.40;91.20;;;;;;5013159;28;20026;-72
2023/07/18 04:19:05;;;;;;;5.85;3.92;;;23.50;91.20;;;;;;5012684;28;20350;-73
2023/07/18 04:21:30;;;;;;;5.15;4.00;;;23.50;91.00;;;;;;4979861;28;20102;-72
2023/07/18 04:23:56;;;;;;;6.68;4.13;;;23.50;90.60;;;;;;4993648;28;20030;-72
2023/07/18 04:26:22;;;;;;;11.98;4.97;;;23.60;90.00;;;;;;4993007;28;20036;-72
2023/07/18 04:28:48;;;;;;;6.18;3.88;;;23.70;88.50;;;;;;4993618;28;20038;-72
2023/07/18 04:31:14;;;;;;;7.18;4.50;;;23.70;85.80;;;;;;4988485;28;20547;-72
2023/07/18 04:33:40;;;;;;;4.75;3.78;;;23.80;80.40;;;;;;4987701;28;20058;-72
2023/07/18 04:36:07;;;;;;;7.82;4.63;;;23.80;76.80;;;;;;4993224;28;20120;-72
2023/07/18 04:38:34;;;;;;;9.70;4.28;;;23.90;74.20;;;;;;4993195;28;20030;-74
2023/07/18 04:41:00;;;;;;;3.83;3.30;;;24.10;73.40;;;;;;4992284;28;20030;-72
2023/07/18 04:43:27;;;;;;;4.18;3.40;;;24.20;70.40;;;;;;4990405;28;20412;-72
2023/07/18 04:45:53;;;;;;;6.32;3.83;;;24.30;68.60;;;;;;4992125;28;20042;-72
2023/07/18 04:48:19;;;;;;;5.60;3.45;;;24.40;68.90;;;;;;4991659;28;20034;-72
2023/07/18 04:50:47;;;;;;;6.82;3.83;;;24.60;67.90;;;;;;4975269;28;20034;-71
2023/07/18 04:53:13;;;;;;;4.78;3.40;;;24.70;65.50;;;;;;4992693;28;20390;-72
2023/07/18 04:55:39;;;;;;;4.35;3.17;;;24.80;64.00;;;;;;4993186;28;20113;-72
2023/07/18 04:58:06;;;;;;;5.00;3.20;;;25.00;60.80;;;;;;4992821;28;20034;-72
2023/07/18 05:00:33;;;;;;;11.32;3.92;;;25.10;60.00;;;;;;4992727;28;20022;-74
2023/07/18 05:03:00;;;;;;;6.93;3.60;;;25.20;60.10;;;;;;4993237;28;20149;-73
2023/07/18 05:05:27;;;;;;;7.03;3.53;;;25.40;59.00;;;;;;4975022;28;20248;-73
2023/07/18 05:07:53;;;;;;;9.40;3.50;;;25.50;58.70;;;;;;4992756;28;20134;-73
2023/07/18 05:10:20;;;;;;;4.68;3.15;;;25.80;57.70;;;;;;4992592;28;20038;-73
2023/07/18 05:12:45;;;;;;;5.53;3.30;;;26.00;57.00;;;;;;4975596;28;20383;-73
2023/07/18 05:15:11;;;;;;;6.75;3.63;;;26.30;55.80;;;;;;4992488;28;20031;-73
2023/07/18 05:17:37;;;;;;;4.93;3.42;;;26.60;54.20;;;;;;4992889;28;20030;-72
2023/07/18 05:20:04;;;;;;;8.57;3.53;;;26.90;51.40;;;;;;4992826;28;20054;-74
2023/07/18 05:22:30;;;;;;;5.47;3.22;;;27.30;50.60;;;;;;4992595;28;20031;-73
2023/07/18 05:24:56;;;;;;;3.58;3.10;;;27.70;49.40;;;;;;4993045;28;20027;-73
2023/07/18 05:27:21;;;;;;;6.40;3.35;;;28.10;48.80;;;;;;4975244;28;20042;-73
2023/07/18 05:29:48;;;;;;;8.80;3.28;;;28.50;48.20;;;;;;4993197;28;20041;-73
2023/07/18 05:32:13;;;;;;;6.60;3.22;;;29.00;46.40;;;;;;4992404;28;20533;-73
2023/07/18 05:34:39;;;;;;;6.30;3.65;;;29.30;46.50;;;;;;4992843;28;20030;-73
2023/07/18 05:37:05;;;;;;;3.40;2.55;;;30.00;45.50;;;;;;4992962;28;20042;-73
2023/07/18 05:39:30;;;;;;;4.50;3.33;;;30.20;43.90;;;;;;4992942;28;20400;-73
2023/07/18 05:41:56;;;;;;;5.28;3.00;;;30.40;43.10;;;;;;4992988;28;20415;-72
2023/07/18 05:44:22;;;;;;;7.03;3.33;;;30.40;41.90;;;;;;4992740;28;20477;-72
2023/07/18 05:46:47;;;;;;;4.38;2.50;;;30.60;41.80;;;;;;4993030;28;20421;-72
2023/07/18 05:49:14;;;;;;;5.70;3.00;;;30.90;41.10;;;;;;4992802;28;20455;-72
2023/07/18 05:51:40;;;;;;;5.63;2.67;;;30.70;39.70;;;;;;4993186;28;20054;-72
2023/07/18 05:54:05;;;;;;;7.15;3.33;;;31.20;40.30;;;;;;4975473;28;20073;-73
2023/07/18 05:56:32;;;;;;;4.13;2.83;;;31.60;39.50;;;;;;4992631;28;20029;-72
2023/07/18 05:58:59;;;;;;;7.93;3.25;;;31.60;39.00;;;;;;4996357;28;20038;-73
2023/07/18 06:01:25;;;;;;;4.30;3.00;;;31.40;38.80;;;;;;4996074;28;20027;-72
2023/07/18 06:03:51;;;;;;;5.57;2.75;;;31.90;38.70;;;;;;4997261;28;20034;-73
2023/07/18 06:06:16;;;;;;;8.75;3.03;;;32.60;38.80;;;;;;5013721;28;20046;-72
2023/07/18 06:08:42;;;;;;;5.68;3.05;;;33.20;37.50;;;;;;5015745;28;20029;-74
2023/07/18 06:11:08;;;;;;;5.90;2.67;;;33.60;37.00;;;;;;5015636;28;20036;-73
2023/07/18 06:13:33;;;;;;;4.45;2.65;;;33.70;36.40;;;;;;5002261;28;20454;-73
2023/07/18 06:15:59;;;;;;;5.68;2.97;;;34.50;35.90;;;;;;4995704;28;20092;-73
2023/07/18 06:18:25;;;;;;;9.23;3.00;;;35.00;34.90;;;;;;4995437;28;20171;-72
2023/07/18 06:20:50;;;;;;;4.68;2.50;;;35.80;35.20;;;;;;4995866;28;20479;-73
2023/07/18 06:23:16;;;;;;;5.05;2.83;;;36.10;33.70;;;;;;4977964;28;20041;-72
2023/07/18 06:25:42;;;;;;;5.13;2.67;;;36.40;33.30;;;;;;4995506;28;20054;-71
2023/07/18 06:28:07;;;;;;;6.10;2.83;;;37.30;33.20;;;;;;4995872;28;20057;-72
2023/07/18 06:30:33;;;;;;;5.03;2.50;;;38.10;32.30;;;;;;4995690;28;20388;-73
2023/07/18 06:32:59;;;;;;;3.28;2.50;;;38.40;31.40;;;;;;4995882;28;20026;-73
2023/07/18 06:35:25;;;;;;;6.05;2.55;;;38.60;30.70;;;;;;4995165;28;20033;-72
2023/07/18 06:37:51;;;;;;;5.15;3.05;;;38.20;30.40;;;;;;4995625;28;20336;-72
2023/07/18 06:40:17;;;;;;;4.53;2.50;;;38.20;31.10;;;;;;4995195;28;20026;-72
2023/07/18 06:42:43;;;;;;;7.35;2.70;;;38.50;30.00;;;;;;4995379;28;20382;-72
2023/07/18 06:45:09;;;;;;;4.88;2.78;;;38.90;29.50;;;;;;4995339;28;20023;-72
2023/07/18 06:47:35;;;;;;;6.68;3.70;;;38.90;29.30;;;;;;4999347;28;20057;-72
2023/07/18 06:50:01;;;;;;;5.40;2.60;;;39.10;29.40;;;;;;5015048;28;20084;-72
2023/07/18 06:52:27;;;;;;;5.32;2.80;;;39.10;29.20;;;;;;5014823;28;20034;-72
2023/07/18 06:54:56;;;;;;;6.10;2.72;;;39.30;29.20;;;;;;5014965;28;20083;-71
2023/07/18 06:57:21;;;;;;;5.22;2.85;;;39.70;29.20;;;;;;5014163;28;20474;-71
2023/07/18 06:59:47;;;;;;;5.45;3.00;;;39.50;29.30;;;;;;5014774;28;20026;-72
2023/07/18 07:02:13;;;;;;;3.53;2.47;;;39.60;28.90;;;;;;5014402;28;20025;-72
2023/07/18 07:04:39;;;;;;;4.68;2.58;;;40.00;29.00;;;;;;5014303;28;20117;-72
2023/07/18 07:07:06;;;;;;;4.72;2.85;;;39.50;28.50;;;;;;5014192;28;20513;-73
2023/07/18 07:09:33;;;;;;;5.55;2.83;;;39.60;28.70;;;;;;5013880;28;20030;-72
2023/07/18 07:11:58;;;;;;;5.22;2.53;;;39.80;28.50;;;;;;5014179;28;20438;-73
2023/07/18 07:14:24;;;;;;;6.05;2.88;;;40.20;29.00;;;;;;5014192;28;20033;-72
2023/07/18 07:16:50;;;;;;;4.72;2.63;;;40.20;28.60;;;;;;5014202;28;20533;-72
2023/07/18 07:19:16;;;;;;;3.83;2.70;;;40.20;28.50;;;;;;5013954;28;20117;-75
2023/07/18 07:21:42;;;;;;;4.93;2.67;;;40.40;27.90;;;;;;5014363;28;20030;-73
2023/07/18 07:24:08;;;;;;;6.18;2.85;;;40.20;27.90;;;;;;5014314;28;20030;-73
2023/07/18 07:26:37;;;;;;;7.10;2.95;;;40.20;27.80;;;;;;5014177;28;20092;-73
2023/07/18 07:29:04;;;;;;;4.57;2.97;;;40.20;28.00;;;;;;5014017;28;20030;-73
2023/07/18 07:31:30;;;;;;;4.85;2.60;;;40.30;27.80;;;;;;5013862;28;20101;-73
2023/07/18 07:33:56;;;;;;;7.07;2.72;;;40.40;28.40;;;;;;5014248;28;20029;-72
2023/07/18 07:36:22;;;;;;;7.60;2.85;;;40.50;27.60;;;;;;5013767;28;20034;-73
2023/07/18 07:38:48;;;;;;;8.23;2.95;;;40.50;28.00;;;;;;5014091;28;20041;-72
2023/07/18 07:41:14;;;;;;;4.15;2.40;;;40.50;28.20;;;;;;5014038;28;20110;-72
2023/07/18 07:43:39;;;;;;;4.10;2.40;;;40.40;27.40;;;;;;5013592;28;20113;-72
2023/07/18 07:46:05;;;;;;;5.88;2.63;;;40.20;27.50;;;;;;5013864;28;20026;-72
2023/07/18 07:48:31;;;;;;;4.03;2.60;;;40.10;27.30;;;;;;5013792;28;20489;-72
2023/07/18 07:50:58;;;;;;;5.18;2.70;;;40.00;27.40;;;;;;5014180;28;20029;-72
2023/07/18 07:53:24;;;;;;;7.80;2.75;;;40.30;27.20;;;;;;5013027;28;20037;-72
2023/07/18 07:55:50;;;;;;;3.30;2.60;;;40.20;26.90;;;;;;5013850;28;20026;-73
2023/07/18 07:58:15;;;;;;;5.63;2.60;;;40.30;27.20;;;;;;5013707;28;20088;-72
2023/07/18 08:00:41;;;;;;;6.47;2.67;;;40.40;26.80;;;;;;5013299;28;20076;-73
2023/07/18 08:03:07;;;;;;;3.30;2.85;;;40.30;26.60;;;;;;5013662;28;20119;-71
2023/07/18 08:05:32;;;;;;;5.68;2.83;;;40.40;27.20;;;;;;5012841;28;20029;-73
2023/07/18 08:07:58;;;;;;;5.00;2.85;;;40.40;27.30;;;;;;4995911;28;20030;-72
2023/07/18 08:10:24;;;;;;;5.95;3.15;;;40.50;26.50;;;;;;5013111;28;20022;-72
2023/07/18 08:12:50;;;;;;;5.85;2.47;;;40.80;27.60;;;;;;5010016;28;20050;-73
2023/07/18 08:15:15;;;;;;;9.38;2.90;;;40.30;26.80;;;;;;5013761;28;20402;-72
2023/07/18 08:17:41;;;;;;;3.75;2.55;;;40.30;26.90;;;;;;5012481;28;20033;-72
2023/07/18 08:20:08;;;;;;;7.18;2.45;;;40.50;26.70;;;;;;5012617;28;20034;-73
2023/07/18 08:22:34;;;;;;;6.57;2.85;;;40.60;26.60;;;;;;4996241;28;20109;-73
2023/07/18 08:25:01;;;;;;;5.38;2.45;;;40.30;26.20;;;;;;4994010;28;20506;-73
2023/07/18 08:27:26;;;;;;;9.25;2.85;;;40.10;26.20;;;;;;4992887;28;20057;-71
2023/07/18 08:29:52;;;;;;;10.13;2.90;;;40.10;26.70;;;;;;4993550;28;20026;-72
2023/07/18 08:32:17;;;;;;;10.82;2.83;;;40.00;26.40;;;;;;4993453;28;20023;-72
2023/07/18 08:34:43;;;;;;;7.38;2.92;;;39.80;26.10;;;;;;4975750;28;20109;-73
2023/07/18 08:37:09;;;;;;;5.05;2.78;;;39.60;26.70;;;;;;4993153;28;20106;-72
2023/07/18 08:39:37;;;;;;;3.67;2.13;;;39.20;26.50;;;;;;4998818;28;20022;-73
2023/07/18 08:42:06;;;;;;;4.85;2.78;;;38.90;26.90;;;;;;5013111;28;20034;-73
2023/07/18 08:44:33;;;;;;;6.50;2.55;;;38.10;26.60;;;;;;5012690;28;20117;-73
2023/07/18 08:47:02;;;;;;;5.78;2.50;;;37.90;27.20;;;;;;5013049;28;20032;-72
2023/07/18 08:49:30;;;;;;;8.20;2.25;;;37.50;27.10;;;;;;4994962;28;20045;-73
2023/07/18 08:51:56;;;;;;;5.53;2.70;;;36.50;27.20;;;;;;5013028;28;20030;-73
2023/07/18 08:54:22;;;;;;;8.40;2.60;;;36.20;28.00;;;;;;5012747;28;20080;-82
2023/07/18 08:56:48;;;;;;;5.70;2.85;;;35.90;27.90;;;;;;5012765;28;20033;-72
2023/07/18 08:59:14;;;;;;;4.82;2.60;;;35.70;28.40;;;;;;5012909;28;20034;-72
2023/07/18 09:01:51;;;;;;;5.72;3.15;;;35.20;28.00;;;;;;5012248;28;20080;-71
2023/07/18 09:04:18;;;;;;;7.43;2.90;;;35.10;29.70;;;;;;5013155;28;20034;-71
2023/07/18 09:06:47;;;;;;;4.78;2.70;;;34.90;30.20;;;;;;5011793;28;20554;-71
2023/07/18 09:09:17;;;;;;;7.43;3.15;;;34.40;29.90;;;;;;5012495;28;20525;-72
2023/07/18 09:11:55;;;;;;;5.03;3.28;;;34.10;29.60;;;;;;5012334;28;20029;-73
2023/07/18 09:14:27;;;;;;;6.13;2.70;;;33.70;29.70;;;;;;5012680;28;20065;-72
2023/07/18 09:16:56;;;;;;;7.40;2.75;;;33.60;31.30;;;;;;5012663;28;20097;-73
2023/07/18 09:19:35;;;;;;;5.93;2.60;;;33.40;30.50;;;;;;5012552;28;20045;-72
2023/07/18 09:22:01;;;;;;;4.60;2.45;;;33.30;30.20;;;;;;5012518;28;20802;-73
2023/07/18 09:24:31;;;;;;;3.47;2.45;;;33.30;30.30;;;;;;5012303;28;20124;-73
2023/07/18 09:26:57;;;;;;;9.82;2.53;;;33.00;30.20;;;;;;5012684;28;20030;-72
2023/07/18 09:29:25;;;;;;;4.97;2.63;;;32.90;29.60;;;;;;5012481;28;20088;-72
2023/07/18 09:31:50;;;;;;;8.57;2.95;;;32.60;30.30;;;;;;5013121;28;20382;-73
2023/07/18 09:34:16;;;;;;;5.60;2.83;;;32.60;30.80;;;;;;5016132;28;20076;-73
2023/07/18 09:36:58;;;;;;;5.20;2.40;;;32.70;32.10;;;;;;4998345;28;20454;-71
2023/07/18 09:39:24;;;;;;;4.28;2.47;;;32.70;30.80;;;;;;5016230;28;20042;-71
2023/07/18 09:41:51;;;;;;;5.03;2.28;;;32.70;30.80;;;;;;5015713;28;20033;-72
2023/07/18 09:44:19;;;;;;;6.57;2.80;;;32.60;30.60;;;;;;5016200;28;20036;-72
2023/07/18 09:46:44;;;;;;;6.40;2.78;;;32.50;30.50;;;;;;5015562;28;20374;-72
2023/07/18 09:49:10;;;;;;;5.22;2.60;;;32.60;30.40;;;;;;5015692;28;20041;-73
2023/07/18 09:51:38;;;;;;;7.05;2.58;;;32.40;30.50;;;;;;5015259;28;20072;-73
2023/07/18 09:54:06;;;;;;;5.00;2.90;;;32.50;30.80;;;;;;5015805;28;20037;-72
2023/07/18 09:56:38;;;;;;;4.35;2.60;;;32.40;30.90;;;;;;5015513;28;20094;-73
2023/07/18 09:59:07;;;;;;;5.38;2.78;;;32.20;31.30;;;;;;5015771;28;20034;-73
2023/07/18 10:01:32;;;;;;;4.40;2.60;;;32.10;31.10;;;;;;5015297;28;20476;-72
2023/07/18 10:03:59;;;;;;;8.00;2.78;;;32.10;31.80;;;;;;5015750;28;20093;-72
2023/07/18 10:06:26;;;;;;;4.40;2.85;;;32.10;32.10;;;;;;5013985;28;20466;-72
2023/07/18 10:08:53;;;;;;;5.82;2.83;;;32.10;31.70;;;;;;5015170;28;20034;-72
2023/07/18 10:11:20;;;;;;;4.90;3.05;;;32.20;32.90;;;;;;5015505;28;20061;-72
2023/07/18 10:14:11;;;;;;;3.55;2.60;;;32.20;32.00;;;;;;5014794;28;20026;-72
2023/07/18 10:16:41;;;;;;;6.10;2.75;;;32.30;31.90;;;;;;5005764;28;20402;-73
2023/07/18 10:19:20;;;;;;;5.20;3.20;;;32.30;31.90;;;;;;5015429;28;20041;-73
2023/07/18 10:21:46;;;;;;;6.57;3.13;;;32.40;32.00;;;;;;5014982;28;20030;-72
2023/07/18 10:24:23;;;;;;;4.78;2.60;;;32.40;31.50;;;;;;5015166;28;20026;-72
2023/07/18 10:26:51;;;;;;;6.07;2.72;;;32.40;32.50;;;;;;5008479;28;20198;-73
2023/07/18 10:29:17;;;;;;;6.90;3.05;;;32.40;32.50;;;;;;4995460;28;20030;-73
2023/07/18 10:31:44;;;;;;;3.95;2.58;;;32.30;32.10;;;;;;4995301;28;20451;-73
2023/07/18 10:34:11;;;;;;;4.95;2.78;;;32.20;33.20;;;;;;4995459;28;20027;-73
2023/07/18 10:36:41;;;;;;;7.45;3.13;;;32.20;34.20;;;;;;4995076;28;20444;-73
2023/07/18 10:39:12;;;;;;;6.80;2.97;;;32.30;33.80;;;;;;4995218;28;20030;-73
2023/07/18 10:41:43;;;;;;;5.07;2.50;;;32.40;32.90;;;;;;4995222;28;20085;-73
2023/07/18 10:44:13;;;;;;;7.47;2.47;;;32.40;32.00;;;;;;4995210;28;20022;-73
2023/07/18 10:46:39;;;;;;;6.30;3.03;;;32.40;32.00;;;;;;4994989;28;20030;-73
2023/07/18 10:49:06;;;;;;;4.95;2.50;;;32.40;32.20;;;;;;4997062;28;20382;-73
2023/07/18 10:51:35;;;;;;;5.63;2.65;;;32.30;32.00;;;;;;5014422;28;20425;-74
2023/07/18 10:54:02;;;;;;;7.20;2.50;;;32.30;32.90;;;;;;5014771;28;20450;-73
2023/07/18 10:56:28;;;;;;;4.43;2.83;;;32.30;32.30;;;;;;5014507;28;20497;-73
2023/07/18 10:58:57;;;;;;;3.47;2.53;;;32.40;33.70;;;;;;5014245;28;20083;-73
2023/07/18 11:01:27;;;;;;;5.82;2.80;;;32.40;33.50;;;;;;5014702;28;20348;-73
2023/07/18 11:03:52;;;;;;;5.93;3.20;;;32.40;32.90;;;;;;5014240;28;20469;-73
2023/07/18 11:06:21;;;;;;;7.00;3.20;;;32.50;32.10;;;;;;5014383;28;20053;-73
2023/07/18 11:08:47;;;;;;;6.13;2.58;;;32.40;32.10;;;;;;5013814;28;20393;-73
2023/07/18 11:11:15;;;;;;;5.32;2.72;;;32.20;32.50;;;;;;5014703;28;20025;-73
2023/07/18 11:13:44;;;;;;;7.28;3.35;;;32.20;32.60;;;;;;5014028;28;20022;-73
2023/07/18 11:16:11;;;;;;;7.40;2.95;;;32.20;33.00;;;;;;5014845;28;20351;-73
2023/07/18 11:18:40;;;;;;;5.35;2.70;;;32.20;33.00;;;;;;5013865;28;20044;-73
2023/07/18 11:21:07;;;;;;;5.28;2.95;;;32.20;32.60;;;;;;5014410;28;20026;-74
2023/07/18 11:23:34;;;;;;;4.45;2.53;;;32.30;33.00;;;;;;5014015;28;20394;-72
2023/07/18 11:26:08;;;;;;;4.60;2.90;;;32.30;33.90;;;;;;5014225;28;20108;-73
2023/07/18 11:28:34;;;;;;;4.43;3.00;;;32.40;33.20;;;;;;5013867;28;20053;-80
2023/07/18 11:31:00;;;;;;;6.45;2.80;;;32.40;33.30;;;;;;5014118;28;20026;-73
2023/07/18 11:33:32;;;;;;;5.97;3.00;;;32.50;33.00;;;;;;5013859;28;20022;-73
2023/07/18 11:35:58;;;;;;;4.50;2.97;;;32.50;33.30;;;;;;5013590;28;20037;-73
2023/07/18 11:38:28;;;;;;;6.13;3.13;;;32.50;33.10;;;;;;5013808;28;20034;-72
2023/07/18 11:40:54;;;;;;;5.75;2.67;;;32.40;33.20;;;;;;5013720;28;20460;-72
2023/07/18 11:43:20;;;;;;;4.57;2.80;;;32.40;33.10;;;;;;5014421;28;20054;-73
2023/07/18 11:45:46;;;;;;;4.60;3.10;;;32.40;33.50;;;;;;5013773;28;20079;-73
2023/07/18 11:48:13;;;;;;;5.90;3.17;;;32.30;33.20;;;;;;5014052;28;20026;-71
2023/07/18 11:50:43;;;;;;;5.80;3.10;;;32.40;33.70;;;;;;5013330;28;20463;-72
2023/07/18 11:53:09;;;;;;;6.70;2.80;;;32.40;33.90;;;;;;5013575;28;20026;-71
2023/07/18 11:55:34;;;;;;;6.00;2.50;;;32.40;33.80;;;;;;5013043;28;20041;-71
2023/07/18 11:58:00;;;;;;;5.82;3.05;;;32.30;33.70;;;;;;5013349;28;20045;-71
2023/07/18 12:00:27;;;;;;;4.15;2.63;;;32.30;35.60;;;;;;5013619;28;20036;-72
2023/07/18 12:02:52;;;;;;;8.90;3.42;;;32.40;34.50;;;;;;5009786;28;20056;-74
2023/07/18 12:05:18;;;;;;;5.30;3.05;;;32.40;34.60;;;;;;5013311;28;20101;-71
2023/07/18 12:07:45;;;;;;;9.60;3.28;;;32.30;34.00;;;;;;5013093;28;20034;-72
2023/07/18 12:10:11;;;;;;;8.32;2.88;;;32.30;34.50;;;;;;5013480;28;20048;-71
2023/07/18 12:12:39;;;;;;;4.85;3.10;;;32.30;34.60;;;;;;5012748;28;20057;-77
2023/07/18 12:15:06;;;;;;;3.92;2.97;;;32.30;34.80;;;;;;5013688;28;20425;-72
2023/07/18 12:17:31;;;;;;;4.03;2.72;;;32.30;34.90;;;;;;5013012;28;20030;-72
2023/07/18 12:19:57;;;;;;;7.82;3.10;;;32.30;34.50;;;;;;5012648;28;20096;-73
2023/07/18 12:22:24;;;;;;;5.03;2.90;;;32.20;34.60;;;;;;5012990;28;20459;-72
2023/07/18 12:24:50;;;;;;;5.70;2.67;;;32.20;35.60;;;;;;5012902;28;20073;-73
2023/07/18 12:27:16;;;;;;;6.00;3.03;;;32.20;35.50;;;;;;5000988;28;20030;-72
2023/07/18 12:29:42;;;;;;;6.28;3.00;;;32.20;34.60;;;;;;4993113;28;20034;-74
2023/07/18 12:32:09;;;;;;;4.80;2.95;;;32.00;34.40;;;;;;4993306;28;20041;-73
2023/07/18 12:34:41;;;;;;;7.50;3.25;;;32.00;35.00;;;;;;4993807;28;20026;-72
2023/07/18 12:37:07;;;;;;;4.85;3.10;;;31.90;35.00;;;;;;4993771;28;20037;-72
2023/07/18 12:39:33;;;;;;;5.57;2.97;;;31.90;35.40;;;;;;4993105;28;20117;-73
2023/07/18 12:41:59;;;;;;;4.30;3.13;;;31.80;35.10;;;;;;4993110;28;20177;-73